Terminal Aerodrome Forecast
Issued by NWS

Home | Current Version | Previous Version | Text Only | Print | Product List | Glossary On
Versions: 1 2 3 4 5 6 7 8 9 10 11 12 13 14 15 16 17 18 19
000
FTUS43 KGRR 292343
TAFMKG
TAF
KMKG 292343Z 3000/3024 17007KT P6SM VCSH SCT050 BKN100
     FM300600 21007KT 5SM BR VCSH OVC015
     FM300900 28008KT 4SM -RA BR OVC008
     FM301200 36010KT 2SM -RA BR OVC005
     FM302100 02014G24KT 5SM -RA BR OVC015=

USA.gov is the U.S. government's official web portal to all federal, state and local government web resources and services.